createdAt,value
2023-02-11T00:00:55.067Z,48.35
2023-02-11T00:03:40.108Z,51.00
2023-02-11T00:06:27.448Z,47.65
2023-02-11T00:09:12.105Z,52.63
2023-02-11T00:11:56.961Z,52.53
2023-02-11T00:14:41.692Z,48.92
2023-02-11T00:17:26.855Z,56.80
2023-02-11T00:22:56.592Z,45.03
2023-02-11T00:25:42.284Z,48.15
2023-02-11T00:28:26.849Z,49.72
2023-02-11T00:33:57.233Z,50.08
2023-02-11T00:39:26.736Z,44.28
2023-02-11T00:42:14.812Z,53.92
2023-02-11T00:44:59.676Z,43.75
2023-02-11T00:50:29.046Z,51.60
2023-02-11T00:55:58.681Z,45.05
2023-02-11T00:58:44.069Z,50.05
2023-02-11T01:01:29.007Z,55.22
2023-02-11T01:06:58.465Z,59.17
2023-02-11T01:09:43.902Z,63.28
2023-02-11T01:12:28.966Z,59.13
2023-02-11T01:15:18.149Z,64.47
2023-02-11T01:18:04.453Z,68.53
2023-02-11T01:20:51.666Z,57.97
2023-02-11T01:23:36.372Z,59.95
2023-02-11T01:26:22.347Z,61.70
2023-02-11T01:29:08.843Z,59.65
2023-02-11T01:34:38.146Z,56.15
2023-02-11T01:37:23.426Z,52.00
2023-02-11T01:40:13.476Z,62.22
2023-02-11T01:42:58.029Z,55.75
2023-02-11T01:45:45.582Z,60.40
2023-02-11T01:48:40.352Z,51.20
2023-02-11T01:51:30.697Z,47.90
2023-02-11T01:54:40.049Z,52.17
2023-02-11T01:57:29.116Z,47.28
2023-02-11T02:00:23.553Z,44.75
2023-02-11T02:03:21.952Z,52.15
2023-02-11T02:06:19.380Z,54.92
2023-02-11T02:09:08.751Z,49.67
2023-02-11T02:11:53.715Z,51.65
2023-02-11T02:17:41.199Z,50.17
2023-02-11T02:20:54.126Z,47.53
2023-02-11T02:23:58.119Z,47.38
2023-02-11T02:27:17.274Z,47.65
2023-02-11T02:30:29.214Z,45.58
2023-02-11T02:33:23.303Z,42.30
2023-02-11T02:36:20.476Z,48.08
2023-02-11T02:39:17.864Z,46.47
2023-02-11T02:42:04.711Z,49.65
2023-02-11T02:44:51.314Z,56.78
2023-02-11T02:47:36.262Z,48.53
2023-02-11T02:53:45.296Z,42.17
2023-02-11T02:56:42.788Z,44.08
2023-02-11T03:02:45.526Z,45.72
2023-02-11T03:05:42.213Z,45.40
2023-02-11T03:08:31.812Z,52.45
2023-02-11T03:11:19.852Z,53.60
2023-02-11T03:14:08.738Z,59.53
2023-02-11T03:16:56.169Z,51.83
2023-02-11T03:19:44.588Z,59.38
2023-02-11T03:22:40.004Z,55.65
2023-02-11T03:25:32.679Z,55.67
2023-02-11T03:28:34.978Z,56.15
2023-02-11T03:31:30.292Z,52.78
2023-02-11T03:34:22.897Z,52.42
2023-02-11T03:37:32.044Z,58.40
2023-02-11T03:40:26.419Z,55.75
2023-02-11T03:43:22.060Z,56.30
2023-02-11T03:46:09.040Z,57.35
2023-02-11T03:48:58.648Z,53.00
2023-02-11T03:51:43.806Z,56.70
2023-02-11T03:54:30.260Z,53.05
2023-02-11T03:57:14.945Z,58.60
2023-02-11T04:00:00.832Z,61.95
2023-02-11T04:02:45.844Z,59.70
2023-02-11T04:05:31.062Z,60.03
2023-02-11T04:08:16.350Z,60.05
2023-02-11T04:11:01.161Z,60.13
2023-02-11T04:13:46.155Z,67.13
2023-02-11T04:16:31.158Z,56.42
2023-02-11T04:19:16.125Z,61.03
2023-02-11T04:22:01.772Z,68.32
2023-02-11T04:24:46.417Z,69.68
2023-02-11T04:27:31.431Z,60.65
2023-02-11T04:30:16.419Z,70.43
2023-02-11T04:33:01.441Z,63.45
2023-02-11T04:38:31.414Z,61.42
2023-02-11T04:41:16.282Z,67.90
2023-02-11T04:46:45.886Z,65.43
2023-02-11T04:49:30.672Z,60.63
2023-02-11T04:55:00.064Z,59.63
2023-02-11T04:57:45.161Z,63.97
2023-02-11T05:00:29.635Z,69.20
2023-02-11T05:03:15.342Z,66.00
2023-02-11T05:06:00.545Z,69.47
2023-02-11T05:08:45.669Z,63.05
2023-02-11T05:14:15.255Z,74.25
2023-02-11T05:17:00.091Z,62.92
2023-02-11T05:19:44.673Z,64.63
2023-02-11T05:22:29.777Z,67.28
2023-02-11T05:27:59.249Z,63.42
2023-02-11T05:30:43.935Z,59.30
2023-02-11T05:36:13.303Z,63.17
2023-02-11T05:38:58.319Z,66.07
2023-02-11T05:44:27.749Z,70.78
2023-02-11T05:47:13.115Z,66.82
2023-02-11T05:49:57.874Z,71.90
2023-02-11T05:52:42.809Z,71.00
2023-02-11T05:58:12.948Z,71.90
2023-02-11T06:00:57.644Z,76.18
2023-02-11T06:03:43.112Z,74.82
2023-02-11T06:06:28.060Z,78.90
2023-02-11T06:11:57.606Z,69.78
2023-02-11T06:14:42.112Z,73.38
2023-02-11T06:17:30.997Z,66.25
2023-02-11T06:20:15.854Z,69.80
2023-02-11T06:23:00.836Z,63.88
2023-02-11T06:28:35.154Z,69.15
2023-02-11T06:31:20.351Z,64.97
2023-02-11T06:36:50.257Z,62.70
2023-02-11T06:39:35.589Z,65.70
2023-02-11T06:45:08.409Z,62.17
2023-02-11T06:47:53.377Z,69.70
2023-02-11T06:53:22.972Z,55.90
2023-02-11T06:56:11.024Z,65.50
2023-02-11T06:58:56.113Z,66.05
2023-02-11T07:01:41.182Z,71.10
2023-02-11T07:07:10.333Z,61.42
2023-02-11T07:09:55.380Z,73.15
2023-02-11T07:12:40.721Z,75.43
2023-02-11T07:15:25.758Z,69.10
2023-02-11T07:18:11.966Z,70.18
2023-02-11T07:20:58.811Z,65.18
2023-02-11T07:26:30.980Z,59.17
2023-02-11T07:29:15.706Z,59.30
2023-02-11T07:34:47.423Z,57.65
2023-02-11T07:37:35.814Z,54.10
2023-02-11T07:40:23.718Z,59.75
2023-02-11T07:43:08.808Z,59.65
2023-02-11T07:45:54.082Z,53.00
2023-02-11T07:51:26.647Z,51.00
2023-02-11T07:54:11.625Z,64.80
2023-02-11T07:56:56.474Z,59.88
2023-02-11T08:02:25.838Z,66.65
2023-02-11T08:07:55.479Z,58.88
2023-02-11T08:13:26.316Z,53.33
2023-02-11T08:16:19.011Z,61.97
2023-02-11T08:19:10.374Z,53.42
2023-02-11T08:21:56.404Z,55.75
2023-02-11T08:24:41.103Z,53.30
2023-02-11T08:27:26.711Z,54.15
2023-02-11T08:30:12.106Z,51.47
2023-02-11T08:32:57.201Z,51.17
2023-02-11T08:35:42.268Z,53.05
2023-02-11T08:38:27.057Z,49.00
2023-02-11T08:41:14.293Z,50.95
2023-02-11T08:43:59.751Z,50.33
2023-02-11T08:46:44.718Z,48.92
2023-02-11T08:49:30.878Z,50.33
2023-02-11T08:52:15.717Z,46.83
2023-02-11T08:55:00.844Z,48.88
2023-02-11T09:00:30.854Z,47.58
2023-02-11T09:03:16.140Z,42.83
2023-02-11T09:06:08.268Z,45.03
2023-02-11T09:08:55.082Z,36.40
2023-02-11T09:11:41.411Z,38.00
2023-02-11T09:14:26.670Z,40.13
2023-02-11T09:17:11.246Z,41.65
2023-02-11T09:19:56.225Z,46.78
2023-02-11T09:22:41.118Z,45.50
2023-02-11T09:25:26.258Z,33.60
2023-02-11T09:28:11.246Z,43.22
2023-02-11T09:30:56.330Z,47.55
2023-02-11T09:36:34.009Z,37.17
2023-02-11T09:39:19.816Z,39.42
2023-02-11T09:42:42.494Z,39.83
2023-02-11T09:45:29.256Z,31.63
2023-02-11T09:48:18.173Z,36.83
2023-02-11T09:51:04.011Z,43.13
2023-02-11T09:53:52.193Z,36.60
2023-02-11T09:56:36.641Z,43.70
2023-02-11T09:59:22.058Z,38.97
2023-02-11T10:02:23.893Z,32.22
2023-02-11T10:05:14.946Z,31.63
2023-02-11T10:11:01.461Z,31.38
2023-02-11T10:13:55.233Z,29.48
2023-02-11T10:16:42.953Z,31.80
2023-02-11T10:19:33.800Z,30.73
2023-02-11T10:22:26.064Z,27.00
2023-02-11T10:25:20.479Z,30.30
2023-02-11T10:28:17.263Z,29.10
2023-02-11T10:31:06.263Z,30.15
2023-02-11T10:33:53.122Z,29.00
2023-02-11T10:36:41.334Z,27.75
2023-02-11T10:39:27.394Z,26.83
2023-02-11T10:42:14.077Z,25.50
2023-02-11T10:45:06.599Z,25.08
2023-02-11T10:47:51.108Z,27.60
2023-02-11T10:50:36.390Z,25.90
2023-02-11T10:53:21.091Z,25.58
2023-02-11T10:56:07.885Z,23.02
2023-02-11T10:58:59.794Z,20.08
2023-02-11T11:01:48.662Z,23.48
2023-02-11T11:04:33.110Z,24.08
2023-02-11T11:07:24.395Z,21.80
2023-02-11T11:10:35.714Z,21.10
2023-02-11T11:13:26.518Z,21.92
2023-02-11T11:16:11.733Z,19.38
2023-02-11T11:19:05.882Z,22.20
2023-02-11T11:21:53.114Z,24.42
2023-02-11T11:24:43.970Z,26.13
2023-02-11T11:27:29.532Z,24.42
2023-02-11T11:30:16.604Z,20.67
2023-02-11T11:33:01.572Z,20.20
2023-02-11T11:35:57.502Z,23.10
2023-02-11T11:38:51.855Z,22.80
2023-02-11T11:41:49.374Z,23.83
2023-02-11T11:44:39.303Z,25.67
2023-02-11T11:47:35.476Z,20.05
2023-02-11T11:50:23.113Z,19.77
2023-02-11T11:53:20.173Z,23.73
2023-02-11T11:56:11.577Z,23.17
2023-02-11T11:59:00.107Z,21.85
2023-02-11T12:02:08.510Z,23.17
2023-02-11T12:05:02.129Z,27.83
2023-02-11T12:08:03.279Z,24.92
2023-02-11T12:11:16.128Z,22.48
2023-02-11T12:14:21.174Z,22.52
2023-02-11T12:17:27.688Z,25.33
2023-02-11T12:20:46.185Z,29.75
2023-02-11T12:23:59.622Z,31.92
2023-02-11T12:26:51.165Z,23.70
2023-02-11T12:30:06.702Z,26.45
2023-02-11T12:33:00.750Z,25.13
2023-02-11T12:36:14.788Z,25.67
2023-02-11T12:39:13.061Z,26.63
2023-02-11T12:42:25.418Z,27.83
2023-02-11T12:45:10.324Z,27.00
2023-02-11T12:48:22.294Z,31.00
2023-02-11T12:51:20.728Z,30.67
2023-02-11T12:54:14.313Z,33.33
2023-02-11T12:57:25.959Z,33.33
2023-02-11T13:00:18.635Z,34.33
2023-02-11T13:03:16.402Z,25.55
2023-02-11T13:06:08.771Z,32.00
2023-02-11T13:09:00.751Z,28.55
2023-02-11T13:11:51.407Z,28.02
2023-02-11T13:14:40.493Z,31.27
2023-02-11T13:18:00.503Z,26.33
2023-02-11T13:21:05.000Z,25.02
2023-02-11T13:24:04.959Z,29.67
2023-02-11T13:27:03.012Z,29.67
2023-02-11T13:30:13.253Z,29.48
2023-02-11T13:32:59.988Z,32.78
2023-02-11T13:35:56.875Z,27.45
2023-02-11T13:38:51.951Z,32.55
2023-02-11T13:41:40.211Z,32.33
2023-02-11T13:44:27.661Z,32.20
2023-02-11T13:47:26.378Z,30.00
2023-02-11T13:50:23.820Z,31.80
2023-02-11T13:53:08.825Z,29.80
2023-02-11T14:02:06.961Z,30.58
2023-02-11T14:05:22.941Z,33.00
2023-02-11T14:08:29.945Z,31.00
2023-02-11T14:11:23.683Z,34.25
2023-02-11T14:14:16.863Z,31.40
2023-02-11T14:17:07.987Z,28.75
2023-02-11T14:19:52.866Z,34.55
2023-02-11T14:22:47.144Z,36.40
2023-02-11T14:25:32.298Z,36.45
2023-02-11T14:28:32.163Z,31.98
2023-02-11T14:32:06.961Z,38.40
2023-02-11T14:35:12.330Z,32.35
2023-02-11T14:38:34.488Z,34.45
2023-02-11T14:41:25.540Z,33.70
2023-02-11T14:44:19.132Z,38.10
2023-02-11T14:47:05.093Z,40.50
2023-02-11T14:49:50.145Z,43.17
2023-02-11T14:52:38.130Z,39.45
2023-02-11T14:55:32.891Z,35.13
2023-02-11T14:58:22.205Z,36.35
2023-02-11T15:01:29.075Z,38.90
2023-02-11T15:04:43.344Z,33.80
2023-02-11T15:07:28.442Z,35.13
2023-02-11T15:10:21.570Z,33.55
2023-02-11T15:13:07.643Z,30.08
2023-02-11T15:16:01.375Z,34.08
2023-02-11T15:18:53.400Z,33.95
2023-02-11T15:21:39.355Z,31.25
2023-02-11T15:24:29.198Z,31.15
2023-02-11T15:27:15.053Z,36.88
2023-02-11T15:30:00.063Z,32.65
2023-02-11T15:35:31.058Z,32.03
2023-02-11T15:38:15.965Z,33.60
2023-02-11T15:43:49.204Z,39.85
2023-02-11T15:46:39.090Z,37.45
2023-02-11T15:49:25.769Z,37.80
2023-02-11T15:52:11.453Z,31.58
2023-02-11T15:55:01.218Z,42.33
2023-02-11T15:57:53.056Z,44.15
2023-02-11T16:00:46.717Z,46.70
2023-02-11T16:03:32.201Z,38.45
2023-02-11T16:06:25.880Z,36.78
2023-02-11T16:09:10.789Z,35.10
2023-02-11T16:11:58.343Z,33.60
2023-02-11T16:14:43.373Z,37.83
2023-02-11T16:17:29.227Z,40.67
2023-02-11T16:20:19.568Z,38.80
2023-02-11T16:23:06.873Z,33.75
2023-02-11T16:25:57.792Z,40.08
2023-02-11T16:28:42.528Z,37.55
2023-02-11T16:31:36.862Z,38.78
2023-02-11T16:34:24.380Z,39.30
2023-02-11T16:37:10.182Z,39.40
2023-02-11T16:39:56.027Z,39.95
2023-02-11T16:42:40.861Z,42.72
2023-02-11T16:45:26.198Z,41.05
2023-02-11T16:48:16.606Z,42.13
2023-02-11T16:51:01.346Z,42.30
2023-02-11T16:56:31.394Z,43.05
2023-02-11T17:02:01.371Z,39.83
2023-02-11T17:04:46.382Z,40.60
2023-02-11T17:10:21.802Z,40.05
2023-02-11T17:13:07.215Z,44.58
2023-02-11T17:15:52.285Z,45.58
2023-02-11T17:18:36.978Z,44.92
2023-02-11T17:21:25.924Z,46.17
2023-02-11T17:24:14.522Z,44.80
2023-02-11T17:26:59.561Z,42.33
2023-02-11T17:32:28.924Z,43.30
2023-02-11T17:35:14.247Z,54.45
2023-02-11T17:40:45.500Z,44.25
2023-02-11T17:43:31.388Z,50.67
2023-02-11T17:46:16.605Z,46.70
2023-02-11T17:51:47.150Z,57.40
2023-02-11T17:57:17.208Z,51.47
2023-02-11T18:00:03.439Z,54.50
2023-02-11T18:03:02.058Z,51.05
2023-02-11T18:05:46.986Z,58.67
2023-02-11T18:08:32.481Z,59.55
2023-02-11T18:11:17.301Z,58.80
2023-02-11T18:14:04.271Z,59.60
2023-02-11T18:16:51.214Z,55.80
2023-02-11T18:19:36.916Z,54.88
2023-02-11T18:22:21.673Z,63.58
2023-02-11T18:27:52.499Z,51.05
2023-02-11T18:30:37.144Z,54.47
2023-02-11T18:33:22.293Z,46.95
2023-02-11T18:36:14.461Z,58.85
2023-02-11T18:39:00.103Z,56.47
2023-02-11T18:41:45.928Z,57.40
2023-02-11T18:44:30.945Z,53.65
2023-02-11T18:50:00.872Z,54.35
2023-02-11T18:55:31.003Z,53.58
2023-02-11T19:01:00.668Z,54.90
2023-02-11T19:03:46.404Z,51.65
2023-02-11T19:06:34.431Z,54.55
2023-02-11T19:09:19.997Z,56.30
2023-02-11T19:12:07.245Z,50.15
2023-02-11T19:14:52.327Z,57.60
2023-02-11T19:17:37.933Z,62.40
2023-02-11T19:20:22.504Z,53.22
2023-02-11T19:23:07.476Z,60.85
2023-02-11T19:25:52.824Z,54.47
2023-02-11T19:28:38.699Z,54.63
2023-02-11T19:31:23.560Z,54.65
2023-02-11T19:34:10.509Z,54.80
2023-02-11T19:36:56.065Z,59.30
2023-02-11T19:39:42.065Z,51.95
2023-02-11T19:42:27.669Z,52.92
2023-02-11T19:45:12.652Z,54.10
2023-02-11T19:47:57.922Z,56.28
2023-02-11T19:53:26.833Z,59.90
2023-02-11T19:56:14.116Z,56.40
2023-02-11T19:59:00.790Z,58.13
2023-02-11T20:01:48.871Z,59.88
2023-02-11T20:04:33.841Z,64.85
2023-02-11T20:07:18.568Z,56.55
2023-02-11T20:10:04.311Z,58.70
2023-02-11T20:12:49.956Z,58.97
2023-02-11T20:15:34.984Z,59.70
2023-02-11T20:18:19.741Z,62.33
2023-02-11T20:24:06.146Z,58.17
2023-02-11T20:26:54.758Z,62.38
2023-02-11T20:29:39.748Z,65.72
2023-02-11T20:35:09.898Z,58.92
2023-02-11T20:37:54.715Z,58.53
2023-02-11T20:40:39.733Z,60.88
2023-02-11T20:43:24.924Z,54.05
2023-02-11T20:46:09.984Z,59.28
2023-02-11T20:48:56.039Z,61.95
2023-02-11T20:51:42.046Z,56.47
2023-02-11T20:54:27.241Z,59.03
2023-02-11T20:59:57.092Z,55.03
2023-02-11T21:02:42.136Z,58.95
2023-02-11T21:05:28.649Z,57.00
2023-02-11T21:08:13.514Z,57.13
2023-02-11T21:13:43.609Z,59.47
2023-02-11T21:19:13.965Z,55.10
2023-02-11T21:24:44.900Z,55.63
2023-02-11T21:27:32.630Z,67.00
2023-02-11T21:30:17.538Z,64.63
2023-02-11T21:33:02.377Z,66.75
2023-02-11T21:38:32.558Z,63.05
2023-02-11T21:41:19.167Z,69.55
2023-02-11T21:44:04.065Z,59.90
2023-02-11T21:46:48.675Z,60.33
2023-02-11T21:52:18.699Z,66.07
2023-02-11T21:57:48.488Z,56.13
2023-02-11T22:00:33.831Z,60.55
2023-02-11T22:03:18.697Z,64.53
2023-02-11T22:06:08.510Z,55.85
2023-02-11T22:08:54.792Z,61.45
2023-02-11T22:11:40.185Z,62.05
2023-02-11T22:14:24.856Z,66.22
2023-02-11T22:17:09.854Z,60.78
2023-02-11T22:19:56.522Z,61.78
2023-02-11T22:22:41.304Z,58.20
2023-02-11T22:25:26.319Z,57.97
2023-02-11T22:28:11.315Z,57.45
2023-02-11T22:30:57.615Z,64.68
2023-02-11T22:33:43.173Z,54.65
2023-02-11T22:36:30.319Z,58.38
2023-02-11T22:39:16.809Z,51.88
2023-02-11T22:42:01.856Z,53.83
2023-02-11T22:44:46.672Z,49.80
2023-02-11T22:47:31.636Z,43.20
2023-02-11T22:53:01.165Z,45.08
2023-02-11T22:55:46.062Z,43.90
2023-02-11T22:58:31.436Z,42.28
2023-02-11T23:01:16.993Z,44.08
2023-02-11T23:04:04.213Z,43.03
2023-02-11T23:06:49.708Z,40.35
2023-02-11T23:09:34.477Z,37.65
2023-02-11T23:12:19.539Z,35.10
2023-02-11T23:15:05.296Z,37.83
2023-02-11T23:17:50.074Z,33.15
2023-02-11T23:20:37.105Z,33.78
2023-02-11T23:23:21.610Z,34.22
2023-02-11T23:26:11.784Z,32.40
2023-02-11T23:28:58.339Z,37.85
2023-02-11T23:31:45.367Z,33.00
2023-02-11T23:34:30.268Z,30.77
2023-02-11T23:37:15.258Z,33.30
2023-02-11T23:40:00.226Z,33.50
2023-02-11T23:42:45.382Z,30.15
2023-02-11T23:45:30.129Z,28.95
2023-02-11T23:48:14.969Z,29.90
2023-02-11T23:50:59.921Z,36.55
2023-02-11T23:53:45.615Z,30.83
2023-02-11T23:56:30.706Z,31.90
